Time;durP1;ratioP1;P1;durP2;ratioP2;P2;SDS_P1;SDS_P2;PMS_P1;PMS_P2;Temp;Humidity;BMP_temperature;BMP_pressure;BME280_temperature;BME280_humidity;BME280_pressure;Samples;Min_cycle;Max_cycle;Signal;HPM_P1;HPM_P2
2021/11/20 00:01:06;;;;;;;119.95;54.22;;;9.50;99.90;;;;;;5006617;28;20101;-72
2021/11/20 00:03:34;;;;;;;124.32;55.30;;;9.60;99.90;;;;;;5032500;28;20500;-72
2021/11/20 00:06:01;;;;;;;116.65;51.70;;;9.50;99.90;;;;;;5005314;28;20045;-72
2021/11/20 00:08:28;;;;;;;120.03;54.20;;;9.50;99.90;;;;;;5023216;28;20053;-72
2021/11/20 00:11:00;;;;;;;125.88;58.17;;;9.50;99.90;;;;;;5024568;28;20152;-72
2021/11/20 00:13:28;;;;;;;130.07;55.97;;;9.50;99.90;;;;;;5023940;28;20049;-73
2021/11/20 00:15:57;;;;;;;127.88;56.15;;;9.50;99.90;;;;;;5005388;28;20053;-72
2021/11/20 00:18:24;;;;;;;126.43;57.15;;;9.50;99.90;;;;;;4989973;28;20045;-73
2021/11/20 00:20:55;;;;;;;110.22;51.70;;;9.50;99.90;;;;;;5006178;28;20483;-72
2021/11/20 00:23:27;;;;;;;126.85;54.78;;;9.50;99.90;;;;;;5024779;28;20079;-73
2021/11/20 00:25:57;;;;;;;129.10;56.05;;;9.60;99.90;;;;;;4989534;28;20056;-73
2021/11/20 00:28:39;;;;;;;119.60;51.85;;;9.60;99.90;;;;;;5004765;28;20407;-73
2021/11/20 00:31:08;;;;;;;120.65;55.40;;;9.60;99.90;;;;;;5002587;28;20150;-73
2021/11/20 00:33:37;;;;;;;127.30;53.88;;;9.50;99.90;;;;;;4988983;28;20404;-73
2021/11/20 00:36:06;;;;;;;122.28;54.00;;;9.50;99.90;;;;;;5005393;28;20049;-73
2021/11/20 00:38:34;;;;;;;121.03;53.60;;;9.50;99.90;;;;;;5005360;28;20056;-73
2021/11/20 00:41:08;;;;;;;122.28;54.97;;;9.60;99.90;;;;;;5002404;28;20049;-71
2021/11/20 00:43:36;;;;;;;127.27;57.47;;;9.60;99.90;;;;;;5023465;28;20037;-72
2021/11/20 00:46:05;;;;;;;138.27;58.28;;;9.60;99.90;;;;;;4989546;28;20064;-73
2021/11/20 00:48:31;;;;;;;128.25;58.15;;;9.50;99.90;;;;;;5005316;28;20045;-72
2021/11/20 00:51:03;;;;;;;127.78;53.60;;;9.50;99.90;;;;;;4988668;28;20111;-73
2021/11/20 00:53:30;;;;;;;113.13;52.13;;;9.50;99.90;;;;;;5006260;28;20450;-72
2021/11/20 00:55:57;;;;;;;107.70;48.70;;;9.50;99.90;;;;;;4989090;28;20053;-72
2021/11/20 00:58:26;;;;;;;94.25;46.28;;;9.50;99.90;;;;;;5036604;28;20066;-72
2021/11/20 01:00:56;;;;;;;105.43;49.65;;;9.50;99.90;;;;;;5005643;28;20057;-72
2021/11/20 01:03:27;;;;;;;103.63;47.97;;;9.50;99.90;;;;;;4988798;28;20048;-72
2021/11/20 01:05:55;;;;;;;103.93;47.97;;;9.50;99.90;;;;;;5004898;28;20072;-72
2021/11/20 01:08:25;;;;;;;101.32;47.72;;;9.50;99.90;;;;;;5005650;28;20052;-72
2021/11/20 01:10:56;;;;;;;87.78;44.00;;;9.50;99.90;;;;;;4988940;28;20107;-72
2021/11/20 01:13:24;;;;;;;88.20;43.60;;;9.50;99.90;;;;;;4988682;28;20046;-72
2021/11/20 01:16:02;;;;;;;83.60;41.08;;;9.60;99.90;;;;;;4988791;28;20130;-72
2021/11/20 01:18:31;;;;;;;70.55;36.53;;;9.60;99.90;;;;;;5005744;28;20124;-72
2021/11/20 01:21:09;;;;;;;85.63;43.35;;;9.50;99.90;;;;;;4987828;28;20057;-72
2021/11/20 01:23:39;;;;;;;87.05;44.97;;;9.60;99.90;;;;;;5006050;28;20053;-72
2021/11/20 01:26:10;;;;;;;94.70;45.25;;;9.60;99.90;;;;;;5005917;28;20103;-72
2021/11/20 01:28:44;;;;;;;95.22;42.17;;;9.60;99.90;;;;;;4988712;28;20653;-72
2021/11/20 01:31:21;;;;;;;99.20;46.58;;;9.60;99.90;;;;;;4988935;28;20149;-72
2021/11/20 01:33:48;;;;;;;107.63;49.65;;;9.60;99.90;;;;;;5022359;28;20053;-72
2021/11/20 01:36:21;;;;;;;114.93;51.42;;;9.60;99.90;;;;;;5028160;23;20060;-78
2021/11/20 01:38:49;;;;;;;111.70;52.63;;;9.60;99.90;;;;;;4998821;28;20511;-83
2021/11/20 01:41:29;;;;;;;131.90;54.38;;;9.60;99.90;;;;;;5006962;28;20057;-82
2021/11/20 01:44:27;;;;;;;117.50;53.67;;;9.60;99.90;;;;;;4998976;28;20073;-80
2021/11/20 01:47:00;;;;;;;126.78;55.10;;;9.60;99.90;;;;;;5043241;28;20108;-81
2021/11/20 01:49:34;;;;;;;139.57;58.10;;;9.50;99.90;;;;;;5020587;28;20045;-81
2021/11/20 01:52:31;;;;;;;127.20;54.55;;;9.60;99.90;;;;;;4999143;28;20060;-81
2021/11/20 01:55:08;;;;;;;129.07;56.45;;;9.50;99.90;;;;;;4998642;28;20653;-84
2021/11/20 01:57:58;;;;;;;126.07;55.50;;;9.50;99.90;;;;;;4993491;28;20077;-83
2021/11/20 02:00:34;;;;;;;122.72;55.70;;;9.50;99.90;;;;;;4963401;28;20065;-83
2021/11/20 02:03:07;;;;;;;131.80;57.53;;;9.60;99.90;;;;;;4980952;28;20100;-81
2021/11/20 02:05:48;;;;;;;116.18;51.83;;;9.60;99.90;;;;;;4982940;28;20054;-82
2021/11/20 02:08:33;;;;;;;117.63;53.00;;;9.50;99.90;;;;;;4991931;28;20084;-83
2021/11/20 02:11:21;;;;;;;135.23;57.67;;;9.50;99.90;;;;;;4975805;28;20050;-82
2021/11/20 02:13:48;;;;;;;135.25;58.22;;;9.60;99.90;;;;;;5008271;28;20061;-84
2021/11/20 02:16:19;;;;;;;128.43;54.95;;;9.60;99.90;;;;;;4991179;28;20053;-83
2021/11/20 02:18:53;;;;;;;129.93;57.10;;;9.50;99.90;;;;;;4995166;28;20073;-83
2021/11/20 02:21:43;;;;;;;135.93;55.75;;;9.50;99.90;;;;;;5005034;28;20537;-82
2021/11/20 02:24:10;;;;;;;132.15;56.55;;;9.60;99.90;;;;;;4991150;28;20087;-83
2021/11/20 02:26:59;;;;;;;122.10;54.13;;;9.60;99.90;;;;;;5018299;28;20054;-82
2021/11/20 02:29:26;;;;;;;94.20;45.08;;;9.60;99.90;;;;;;5026491;28;20065;-81
2021/11/20 02:32:02;;;;;;;120.25;51.33;;;9.50;99.90;;;;;;5011386;28;20056;-85
2021/11/20 02:34:54;;;;;;;117.13;50.63;;;9.60;99.90;;;;;;4996159;28;20346;-82
2021/11/20 02:37:27;;;;;;;113.68;53.75;;;9.60;99.90;;;;;;4990410;28;20110;-82
2021/11/20 02:39:53;;;;;;;117.20;51.53;;;9.60;99.90;;;;;;5007491;28;20048;-83
2021/11/20 02:42:23;;;;;;;111.63;52.75;;;9.60;99.90;;;;;;4986902;28;20041;-81
2021/11/20 02:45:23;;;;;;;105.25;50.35;;;9.50;99.90;;;;;;5008305;28;20052;-80
2021/11/20 02:47:53;;;;;;;104.95;52.97;;;9.50;99.90;;;;;;5042941;28;20053;-81
2021/11/20 02:50:37;;;;;;;114.30;53.88;;;9.50;99.90;;;;;;5036813;28;20069;-82
2021/11/20 02:53:15;;;;;;;106.65;48.25;;;9.60;99.90;;;;;;4998013;28;20049;-80
2021/11/20 02:55:47;;;;;;;110.57;51.47;;;9.60;99.90;;;;;;5014904;28;20498;-81
2021/11/20 02:58:17;;;;;;;110.72;51.08;;;9.60;99.90;;;;;;5013487;28;20531;-80
2021/11/20 03:01:13;;;;;;;100.32;45.53;;;9.60;99.90;;;;;;5010302;28;20052;-81
2021/11/20 03:03:41;;;;;;;110.85;50.92;;;9.60;99.90;;;;;;5015059;28;20079;-80
2021/11/20 03:06:08;;;;;;;114.05;50.40;;;9.60;99.90;;;;;;4993852;28;20049;-81
2021/11/20 03:08:35;;;;;;;121.65;53.47;;;9.60;99.90;;;;;;5010191;28;20313;-82
2021/11/20 03:11:13;;;;;;;121.68;52.85;;;9.60;99.90;;;;;;5026538;28;20049;-81
2021/11/20 03:13:45;;;;;;;120.18;52.45;;;9.60;99.90;;;;;;5006321;28;20068;-80
2021/11/20 03:16:24;;;;;;;120.72;51.17;;;9.50;99.90;;;;;;5013043;28;20064;-83
2021/11/20 03:18:51;;;;;;;129.05;54.65;;;9.60;99.90;;;;;;4994731;28;20848;-81
2021/11/20 03:21:20;;;;;;;122.78;50.10;;;9.50;99.90;;;;;;4997058;28;20061;-83
2021/11/20 03:23:56;;;;;;;125.75;53.70;;;9.50;99.90;;;;;;5012625;28;20557;-81
2021/11/20 03:26:22;;;;;;;122.45;50.25;;;9.50;99.90;;;;;;5004642;28;20037;-81
2021/11/20 03:28:49;;;;;;;127.97;52.15;;;9.50;99.90;;;;;;4992730;28;20137;-82
2021/11/20 03:31:16;;;;;;;120.65;52.78;;;9.50;99.90;;;;;;5002086;28;20051;-81
2021/11/20 03:33:43;;;;;;;131.32;54.30;;;9.50;99.90;;;;;;4992155;28;20141;-83
2021/11/20 03:36:11;;;;;;;124.57;50.90;;;9.50;99.90;;;;;;5011974;28;20041;-82
2021/11/20 03:38:38;;;;;;;118.55;51.92;;;9.40;99.90;;;;;;5010542;28;20503;-82
2021/11/20 03:41:10;;;;;;;113.25;50.13;;;9.50;99.90;;;;;;4993891;28;20076;-82
2021/11/20 03:43:37;;;;;;;132.77;54.88;;;9.50;99.90;;;;;;5001079;28;20127;-81
2021/11/20 03:46:05;;;;;;;129.70;54.00;;;9.40;99.90;;;;;;5015264;28;20053;-82
2021/11/20 03:48:33;;;;;;;105.63;48.75;;;9.50;99.90;;;;;;4994937;28;20132;-80
2021/11/20 03:51:01;;;;;;;113.28;49.45;;;9.40;99.90;;;;;;4995074;28;20503;-82
2021/11/20 03:53:29;;;;;;;104.15;46.95;;;9.40;99.90;;;;;;4994771;28;20045;-81
2021/11/20 03:55:57;;;;;;;123.80;53.15;;;9.40;99.90;;;;;;5011964;28;20107;-81
2021/11/20 03:58:24;;;;;;;110.38;49.50;;;9.40;99.90;;;;;;5011018;28;20499;-81
2021/11/20 04:01:09;;;;;;;111.93;50.17;;;9.40;99.90;;;;;;5011383;28;20424;-80
2021/11/20 04:03:39;;;;;;;110.13;48.10;;;9.40;99.90;;;;;;5012591;28;20054;-81
2021/11/20 04:06:15;;;;;;;100.53;46.08;;;9.40;99.90;;;;;;4998301;28;20046;-80
2021/11/20 04:08:51;;;;;;;118.93;50.28;;;9.40;99.90;;;;;;4996282;28;20046;-82
2021/11/20 04:11:28;;;;;;;103.38;45.70;;;9.40;99.90;;;;;;5011413;28;20041;-82
2021/11/20 04:13:57;;;;;;;106.22;47.35;;;9.40;99.90;;;;;;5017845;28;20045;-82
2021/11/20 04:16:29;;;;;;;102.63;46.67;;;9.40;99.90;;;;;;5013617;28;20086;-82
2021/11/20 04:18:59;;;;;;;113.05;47.03;;;9.30;99.90;;;;;;5015049;28;20060;-82
2021/11/20 04:21:27;;;;;;;103.45;44.38;;;9.40;99.90;;;;;;5017347;28;20052;-82
2021/11/20 04:23:59;;;;;;;107.30;45.88;;;9.40;99.90;;;;;;4997657;28;20037;-81
2021/11/20 04:26:50;;;;;;;99.25;44.80;;;9.40;99.90;;;;;;5013736;28;20046;-82
2021/11/20 04:29:17;;;;;;;101.40;44.03;;;9.40;99.90;;;;;;4995438;28;20056;-82
2021/11/20 04:31:45;;;;;;;95.47;44.70;;;9.40;99.90;;;;;;5011535;28;20577;-84
2021/11/20 04:34:13;;;;;;;103.25;46.17;;;9.40;99.90;;;;;;5013814;28;20113;-83
2021/11/20 04:36:40;;;;;;;101.55;46.20;;;9.40;99.90;;;;;;4992340;28;20422;-82
2021/11/20 04:39:10;;;;;;;98.30;44.33;;;9.50;99.90;;;;;;5007908;28;20049;-82
2021/11/20 04:41:36;;;;;;;97.65;43.95;;;9.40;99.90;;;;;;4989810;28;20046;-82
2021/11/20 04:44:04;;;;;;;98.82;46.42;;;9.40;99.90;;;;;;5020899;28;20043;-83
2021/11/20 04:46:32;;;;;;;103.30;45.33;;;9.40;99.90;;;;;;5048092;28;20099;-84
2021/11/20 04:48:58;;;;;;;106.97;46.22;;;9.40;99.90;;;;;;5016092;28;20072;-83
2021/11/20 04:51:26;;;;;;;93.25;45.22;;;9.40;99.90;;;;;;5031979;28;20052;-84
2021/11/20 04:53:54;;;;;;;98.57;41.92;;;9.40;99.90;;;;;;5031529;28;20504;-81
2021/11/20 04:56:25;;;;;;;105.63;46.05;;;9.40;99.90;;;;;;5011215;28;20065;-81
2021/11/20 04:58:53;;;;;;;107.25;46.50;;;9.30;99.90;;;;;;4991112;28;20061;-83
2021/11/20 05:01:23;;;;;;;110.05;47.35;;;9.30;99.90;;;;;;5010274;28;20054;-83
2021/11/20 05:03:53;;;;;;;103.03;45.60;;;9.40;99.90;;;;;;5003540;28;20495;-83
2021/11/20 05:06:23;;;;;;;99.05;44.20;;;9.30;99.90;;;;;;5010102;28;20052;-82
2021/11/20 05:08:50;;;;;;;104.35;43.97;;;9.40;99.90;;;;;;5011158;28;20138;-83
2021/11/20 05:11:17;;;;;;;93.13;42.38;;;9.30;99.90;;;;;;5011985;28;20056;-81
2021/11/20 05:13:48;;;;;;;100.22;46.92;;;9.30;99.90;;;;;;5033000;28;20064;-82
2021/11/20 05:16:16;;;;;;;92.30;41.55;;;9.30;99.90;;;;;;5015053;28;20063;-82
2021/11/20 05:18:44;;;;;;;100.65;42.72;;;9.30;99.90;;;;;;5033965;28;20077;-82
2021/11/20 05:21:16;;;;;;;91.88;40.15;;;9.30;99.90;;;;;;5034220;28;20057;-82
2021/11/20 05:23:46;;;;;;;85.95;38.95;;;9.30;99.90;;;;;;5051142;28;20083;-82
2021/11/20 05:26:16;;;;;;;87.20;41.63;;;9.30;99.90;;;;;;5014330;28;20530;-82
2021/11/20 05:29:07;;;;;;;89.82;41.35;;;9.30;99.90;;;;;;4993051;28;20045;-82
2021/11/20 05:31:49;;;;;;;90.50;41.38;;;9.30;99.90;;;;;;5013083;28;20049;-82
2021/11/20 05:34:16;;;;;;;77.07;37.70;;;9.30;99.90;;;;;;5014594;28;20057;-81
2021/11/20 05:36:43;;;;;;;85.03;40.72;;;9.30;99.90;;;;;;4996879;28;20052;-82
2021/11/20 05:39:14;;;;;;;84.72;39.58;;;9.30;99.90;;;;;;4998957;28;20044;-82
2021/11/20 05:41:43;;;;;;;87.13;38.75;;;9.30;99.90;;;;;;4987260;28;20068;-82
2021/11/20 05:44:12;;;;;;;84.22;41.70;;;9.30;99.90;;;;;;5020137;28;20140;-80
2021/11/20 05:46:58;;;;;;;87.68;42.38;;;9.20;99.90;;;;;;4999276;28;20412;-82
2021/11/20 05:49:31;;;;;;;87.53;41.88;;;9.30;99.90;;;;;;4997897;28;20072;-82
2021/11/20 05:52:03;;;;;;;99.28;46.63;;;9.30;99.90;;;;;;5005669;28;20085;-85
2021/11/20 05:54:30;;;;;;;99.88;45.58;;;9.30;99.90;;;;;;5008349;28;20107;-84
2021/11/20 05:57:06;;;;;;;106.07;48.38;;;9.30;99.90;;;;;;5019685;28;20045;-81
2021/11/20 05:59:37;;;;;;;105.78;47.60;;;9.20;99.90;;;;;;5026987;28;20107;-86
2021/11/20 06:02:05;;;;;;;102.85;47.75;;;9.30;99.90;;;;;;5024796;28;20061;-82
2021/11/20 06:04:39;;;;;;;98.40;49.03;;;9.20;99.90;;;;;;5004369;28;20052;-85
2021/11/20 06:07:06;;;;;;;105.35;48.95;;;9.20;99.90;;;;;;4999410;28;20068;-81
2021/11/20 06:09:33;;;;;;;106.13;49.22;;;9.20;99.90;;;;;;5003981;28;20038;-84
2021/11/20 06:12:02;;;;;;;109.65;50.08;;;9.20;99.90;;;;;;5021973;28;20069;-87
2021/11/20 06:14:31;;;;;;;111.43;51.55;;;9.10;99.90;;;;;;5029028;28;20112;-84
2021/11/20 06:16:58;;;;;;;113.57;49.83;;;9.10;99.90;;;;;;5005284;28;20049;-84
2021/11/20 06:19:27;;;;;;;112.63;52.60;;;9.10;99.90;;;;;;4999843;28;20396;-81
2021/11/20 06:21:54;;;;;;;122.32;52.78;;;9.20;99.90;;;;;;5010194;28;20100;-81
2021/11/20 06:24:21;;;;;;;114.78;50.88;;;9.20;99.90;;;;;;5008966;28;20495;-80
2021/11/20 06:26:50;;;;;;;117.88;53.08;;;9.10;99.90;;;;;;5009816;28;20521;-83
2021/11/20 06:29:19;;;;;;;110.82;51.72;;;9.10;99.90;;;;;;4980707;28;20065;-84
2021/11/20 06:31:48;;;;;;;117.57;52.25;;;9.10;99.90;;;;;;4983410;28;20097;-83
2021/11/20 06:34:36;;;;;;;119.97;53.92;;;9.10;99.90;;;;;;4996822;28;20042;-82
2021/11/20 06:37:25;;;;;;;117.95;52.28;;;9.10;99.90;;;;;;4973062;28;20049;-82
2021/11/20 06:40:03;;;;;;;117.60;51.15;;;9.10;99.90;;;;;;4958773;28;20054;-81
2021/11/20 06:42:31;;;;;;;109.35;50.90;;;9.10;99.90;;;;;;4993849;28;20042;-82
2021/11/20 06:44:58;;;;;;;109.38;47.45;;;9.10;99.90;;;;;;4984599;28;20050;-81
2021/11/20 06:47:26;;;;;;;104.18;47.97;;;9.00;99.90;;;;;;4975726;28;20089;-81
2021/11/20 06:49:53;;;;;;;119.75;51.70;;;9.00;99.90;;;;;;4976202;28;20050;-82
2021/11/20 06:52:20;;;;;;;106.05;50.13;;;9.10;99.90;;;;;;4991766;28;20075;-81
2021/11/20 06:55:14;;;;;;;113.80;51.78;;;9.10;99.90;;;;;;4995811;28;20042;-83
2021/11/20 07:01:16;;;;;;;104.82;48.15;;;9.10;99.90;;;;;;4946191;28;20047;-82
2021/11/20 07:03:51;;;;;;;104.03;48.13;;;9.10;99.90;;;;;;4987084;28;20049;-82
2021/11/20 07:06:33;;;;;;;109.45;49.47;;;9.10;99.90;;;;;;5000462;28;20520;-82
2021/11/20 07:09:01;;;;;;;104.60;47.55;;;9.10;99.90;;;;;;4992642;28;20423;-82
2021/11/20 07:11:28;;;;;;;104.97;49.22;;;9.10;99.90;;;;;;4968065;28;20157;-82
2021/11/20 07:13:55;;;;;;;98.82;47.47;;;9.20;99.90;;;;;;4988715;28;20050;-83
2021/11/20 07:16:25;;;;;;;109.80;51.88;;;9.10;99.90;;;;;;4990808;28;20050;-83
2021/11/20 07:18:55;;;;;;;95.40;46.58;;;9.10;99.90;;;;;;4976331;28;20464;-83
2021/11/20 07:21:40;;;;;;;96.43;46.53;;;9.10;99.90;;;;;;4990914;28;20141;-84
2021/11/20 07:24:26;;;;;;;96.07;44.67;;;9.10;99.90;;;;;;4974824;28;20058;-83
2021/11/20 07:26:53;;;;;;;93.78;44.90;;;9.10;99.90;;;;;;4974960;28;20133;-82
2021/11/20 07:29:20;;;;;;;94.65;44.00;;;9.00;99.90;;;;;;4990968;28;20037;-82
2021/11/20 07:32:16;;;;;;;86.35;41.63;;;9.10;99.90;;;;;;4996298;28;20050;-84
2021/11/20 07:34:44;;;;;;;81.40;41.03;;;9.00;99.90;;;;;;4974871;28;20409;-81
2021/11/20 07:37:11;;;;;;;74.18;38.00;;;9.00;99.90;;;;;;4970391;28;20050;-84
2021/11/20 07:39:38;;;;;;;77.28;39.17;;;9.00;99.90;;;;;;4976399;28;20061;-82
2021/11/20 07:42:06;;;;;;;82.00;39.92;;;9.00;99.90;;;;;;5005971;28;20049;-83
2021/11/20 07:44:39;;;;;;;75.07;39.92;;;9.00;99.90;;;;;;4999523;28;20144;-82
2021/11/20 07:47:07;;;;;;;76.40;39.80;;;9.00;99.90;;;;;;5013224;28;20051;-82
2021/11/20 07:49:39;;;;;;;77.43;38.85;;;9.00;99.90;;;;;;5031407;28;20072;-82
2021/11/20 07:52:06;;;;;;;67.93;36.67;;;9.00;99.90;;;;;;5022492;28;20056;-82
2021/11/20 07:54:34;;;;;;;68.10;37.80;;;9.00;99.90;;;;;;5011661;28;20153;-82
2021/11/20 07:57:24;;;;;;;66.45;34.97;;;9.00;99.90;;;;;;4982318;28;20518;-81
2021/11/20 07:59:57;;;;;;;66.80;36.30;;;9.10;99.90;;;;;;4994037;28;20064;-81
2021/11/20 08:02:44;;;;;;;74.30;37.70;;;9.10;99.90;;;;;;5025471;28;20053;-82
2021/11/20 08:05:26;;;;;;;65.47;34.20;;;9.10;99.90;;;;;;4998099;28;20137;-82
2021/11/20 08:08:11;;;;;;;65.57;35.20;;;9.10;99.90;;;;;;4975314;28;20050;-81
2021/11/20 08:10:58;;;;;;;62.47;35.65;;;9.10;99.90;;;;;;5000039;28;20046;-81
2021/11/20 08:13:25;;;;;;;73.22;37.55;;;9.10;99.90;;;;;;4968291;28;20053;-82
2021/11/20 08:15:58;;;;;;;67.55;34.85;;;9.10;99.90;;;;;;4981465;28;20559;-81
2021/11/20 08:19:03;;;;;;;71.20;32.40;;;9.10;99.90;;;;;;4984492;28;20054;-81
2021/11/20 08:21:36;;;;;;;61.55;33.05;;;9.10;99.90;;;;;;4971358;28;20329;-82
2021/11/20 08:24:11;;;;;;;60.88;33.33;;;9.10;99.90;;;;;;4981339;28;20050;-83
2021/11/20 08:26:42;;;;;;;74.43;37.80;;;9.10;99.90;;;;;;4993662;28;20083;-81
2021/11/20 08:29:12;;;;;;;80.68;38.15;;;9.20;99.90;;;;;;5026841;28;20115;-80
2021/11/20 08:31:44;;;;;;;68.55;36.92;;;9.20;99.90;;;;;;4992997;28;20160;-80
2021/11/20 08:34:24;;;;;;;59.50;34.35;;;9.20;99.90;;;;;;5009331;28;20073;-82
2021/11/20 08:37:10;;;;;;;65.75;34.15;;;9.20;99.90;;;;;;5011888;28;20643;-80
2021/11/20 08:39:44;;;;;;;73.10;39.72;;;9.20;99.90;;;;;;4993912;28;20144;-82
2021/11/20 08:42:15;;;;;;;66.20;37.88;;;9.20;99.90;;;;;;4993098;28;20050;-81
2021/11/20 08:44:42;;;;;;;67.70;38.03;;;9.20;99.90;;;;;;5021147;28;20056;-79
2021/11/20 08:47:15;;;;;;;69.25;36.95;;;9.20;99.90;;;;;;5029212;28;20136;-82
2021/11/20 08:49:42;;;;;;;61.58;36.92;;;9.30;99.90;;;;;;5013897;28;20045;-81
2021/11/20 08:52:13;;;;;;;62.95;36.78;;;9.30;99.90;;;;;;5029421;28;20520;-81
2021/11/20 08:54:41;;;;;;;61.13;36.40;;;9.30;99.90;;;;;;5030666;28;20136;-82
2021/11/20 08:57:09;;;;;;;70.97;40.33;;;9.30;99.90;;;;;;5007875;28;20053;-81
2021/11/20 08:59:38;;;;;;;58.75;35.22;;;9.30;99.90;;;;;;5009161;28;20055;-80
2021/11/20 09:02:22;;;;;;;62.92;38.42;;;9.30;99.90;;;;;;5009598;28;20057;-82
2021/11/20 09:05:07;;;;;;;67.10;37.17;;;9.30;99.90;;;;;;5005999;28;20132;-81
2021/11/20 09:07:50;;;;;;;62.22;36.30;;;9.40;99.90;;;;;;4968065;28;20126;-81
2021/11/20 09:10:23;;;;;;;72.95;42.10;;;9.30;99.90;;;;;;4954918;28;20050;-82
2021/11/20 09:13:22;;;;;;;70.68;40.65;;;9.30;99.90;;;;;;4981770;28;20053;-82
2021/11/20 09:16:00;;;;;;;70.07;38.47;;;9.30;99.90;;;;;;4984899;28;20054;-80
2021/11/20 09:18:31;;;;;;;79.30;42.90;;;9.30;99.90;;;;;;5006591;28;20046;-81
2021/11/20 09:21:00;;;;;;;75.10;42.00;;;9.30;99.90;;;;;;4991282;28;20058;-81
2021/11/20 09:23:54;;;;;;;77.72;42.60;;;9.40;99.90;;;;;;4979592;28;20038;-82
2021/11/20 09:26:37;;;;;;;75.95;41.05;;;9.40;99.90;;;;;;4978998;28;20046;-81
2021/11/20 09:29:08;;;;;;;73.57;40.83;;;9.40;99.90;;;;;;4991155;28;20050;-82
2021/11/20 09:31:37;;;;;;;72.70;39.55;;;9.50;99.90;;;;;;4992042;28;20050;-81
2021/11/20 09:34:04;;;;;;;72.85;40.90;;;9.50;99.90;;;;;;4979855;28;20047;-81
2021/11/20 09:36:31;;;;;;;71.32;39.50;;;9.50;99.90;;;;;;4980802;28;20065;-80
2021/11/20 09:39:15;;;;;;;66.50;36.20;;;9.40;99.90;;;;;;4993748;28;20096;-83
2021/11/20 09:42:11;;;;;;;75.97;40.08;;;9.40;99.90;;;;;;5014056;28;20163;-80
2021/11/20 09:44:47;;;;;;;74.45;39.40;;;9.40;99.90;;;;;;5012425;28;20050;-81
2021/11/20 09:47:28;;;;;;;69.32;36.80;;;9.40;99.90;;;;;;4994002;28;20049;-81
2021/11/20 09:50:10;;;;;;;68.68;38.25;;;9.40;99.90;;;;;;4998027;28;20076;-82
2021/11/20 09:52:38;;;;;;;74.32;37.35;;;9.40;99.90;;;;;;4970093;28;20133;-80
2021/11/20 09:55:07;;;;;;;72.68;35.95;;;9.40;99.90;;;;;;4971074;28;20674;-82
2021/11/20 09:57:44;;;;;;;67.25;36.85;;;9.50;99.90;;;;;;4966276;28;20071;-82
2021/11/20 10:00:29;;;;;;;69.82;35.38;;;9.60;99.90;;;;;;5000567;28;20045;-82
2021/11/20 10:03:01;;;;;;;63.00;35.45;;;9.50;99.90;;;;;;4993805;28;20042;-82
2021/11/20 10:05:34;;;;;;;65.05;34.25;;;9.40;99.90;;;;;;5006676;28;20112;-82
2021/11/20 10:08:19;;;;;;;66.50;35.50;;;9.40;99.90;;;;;;4990586;28;20137;-82
2021/11/20 10:11:08;;;;;;;67.60;36.42;;;9.40;99.90;;;;;;4973831;28;20065;-82
2021/11/20 10:14:10;;;;;;;65.45;33.15;;;9.40;99.90;;;;;;4979980;28;20061;-83
2021/11/20 10:16:42;;;;;;;60.13;31.55;;;9.50;99.90;;;;;;4976280;28;20049;-82
2021/11/20 10:19:18;;;;;;;63.13;31.98;;;9.50;99.90;;;;;;4977532;28;20080;-81
2021/11/20 10:22:19;;;;;;;55.03;27.13;;;9.40;99.90;;;;;;4978538;28;20041;-82
2021/11/20 10:24:49;;;;;;;57.38;30.35;;;9.40;99.90;;;;;;5007353;28;20489;-82
2021/11/20 10:27:57;;;;;;;56.72;27.38;;;9.40;99.90;;;;;;4972260;28;20503;-82
2021/11/20 10:30:47;;;;;;;70.85;33.60;;;9.40;99.90;;;;;;4977530;28;20041;-82
2021/11/20 10:33:21;;;;;;;63.85;33.55;;;9.50;99.90;;;;;;5009399;28;20054;-80
2021/11/20 10:36:13;;;;;;;67.90;35.97;;;9.40;99.90;;;;;;4991871;28;20048;-81
2021/11/20 10:38:55;;;;;;;64.35;33.05;;;9.40;99.90;;;;;;4996227;28;20050;-82
2021/11/20 10:41:28;;;;;;;73.00;37.38;;;9.40;99.90;;;;;;4997451;28;20518;-81
2021/11/20 10:44:18;;;;;;;65.93;34.05;;;9.50;99.90;;;;;;4997075;28;20052;-81
2021/11/20 10:46:56;;;;;;;68.25;35.53;;;9.40;99.90;;;;;;4957243;28;20050;-80
2021/11/20 10:49:39;;;;;;;75.05;39.08;;;9.40;99.90;;;;;;4973285;28;20423;-82
2021/11/20 10:52:53;;;;;;;70.30;37.22;;;9.50;99.90;;;;;;5001598;28;20048;-80
2021/11/20 10:55:27;;;;;;;73.85;37.55;;;9.40;99.90;;;;;;4977203;28;20050;-82
2021/11/20 10:58:06;;;;;;;66.50;36.40;;;9.40;99.90;;;;;;4995804;28;20116;-82
2021/11/20 11:00:45;;;;;;;70.13;36.97;;;9.40;99.90;;;;;;4956675;28;20492;-82
2021/11/20 11:03:51;;;;;;;65.57;34.45;;;9.40;99.90;;;;;;4973294;28;20049;-81
2021/11/20 11:06:41;;;;;;;71.90;36.72;;;9.40;99.90;;;;;;4990215;28;20152;-82
2021/11/20 11:09:20;;;;;;;63.72;32.28;;;9.50;99.90;;;;;;5005782;28;20451;-80
2021/11/20 11:11:59;;;;;;;68.60;35.10;;;9.40;99.90;;;;;;4976092;28;20046;-81
2021/11/20 11:14:42;;;;;;;63.33;34.10;;;9.40;99.90;;;;;;4998503;28;20082;-81
2021/11/20 11:17:20;;;;;;;61.58;33.03;;;9.50;99.90;;;;;;4957362;28;20051;-82
2021/11/20 11:19:55;;;;;;;64.80;34.58;;;9.50;99.90;;;;;;4972194;28;20042;-81
2021/11/20 11:22:35;;;;;;;63.13;30.70;;;9.40;99.90;;;;;;4973385;28;20068;-83
2021/11/20 11:25:08;;;;;;;57.80;30.23;;;9.50;99.90;;;;;;4975508;28;20049;-82
2021/11/20 11:28:00;;;;;;;57.40;31.48;;;9.40;99.90;;;;;;5006134;28;20578;-82
2021/11/20 11:30:48;;;;;;;58.35;31.75;;;9.50;99.90;;;;;;4989306;28;20160;-82
2021/11/20 11:33:17;;;;;;;57.55;30.88;;;9.50;99.90;;;;;;4986495;28;20571;-82
2021/11/20 11:36:09;;;;;;;57.60;30.85;;;9.60;99.90;;;;;;4974524;28;20054;-82
2021/11/20 11:39:15;;;;;;;50.30;27.30;;;9.60;99.90;;;;;;4998734;28;20048;-81
2021/11/20 11:42:19;;;;;;;57.00;29.85;;;9.60;99.90;;;;;;4937931;28;20046;-80
2021/11/20 11:45:03;;;;;;;57.95;29.48;;;9.60;99.90;;;;;;4996880;28;20043;-84
2021/11/20 11:48:10;;;;;;;56.40;29.88;;;9.60;99.90;;;;;;4991966;28;20054;-84
2021/11/20 11:51:14;;;;;;;61.05;31.33;;;9.60;99.90;;;;;;5000708;28;20516;-81
2021/11/20 11:54:00;;;;;;;51.08;29.42;;;9.60;99.90;;;;;;4980968;28;20042;-81
2021/11/20 11:56:31;;;;;;;46.30;26.27;;;9.70;99.90;;;;;;4987356;28;20057;-82
2021/11/20 11:59:20;;;;;;;53.10;29.42;;;9.60;99.90;;;;;;4974305;28;20503;-82
2021/11/20 12:01:59;;;;;;;45.95;25.52;;;9.60;99.90;;;;;;4983994;28;20050;-81
2021/11/20 12:04:35;;;;;;;57.85;30.70;;;9.60;99.90;;;;;;4987091;28;20054;-80
2021/11/20 12:07:09;;;;;;;50.30;28.73;;;9.50;99.90;;;;;;4983421;28;20050;-81
2021/11/20 12:09:45;;;;;;;46.95;27.67;;;9.60;99.90;;;;;;4971440;28;20042;-82
2021/11/20 12:12:32;;;;;;;48.15;26.55;;;9.60;99.90;;;;;;4975616;28;20135;-83
2021/11/20 12:15:28;;;;;;;48.78;26.52;;;9.60;99.90;;;;;;4974770;28;20050;-82
2021/11/20 12:17:59;;;;;;;49.65;28.08;;;9.60;99.90;;;;;;4973143;28;20573;-83
2021/11/20 12:20:39;;;;;;;49.85;28.48;;;9.60;99.90;;;;;;4989823;28;20049;-82
2021/11/20 12:23:25;;;;;;;52.95;29.23;;;9.60;99.90;;;;;;5006355;28;20777;-80
2021/11/20 12:26:19;;;;;;;47.97;28.15;;;9.60;99.90;;;;;;4989832;28;20157;-81
2021/11/20 12:28:56;;;;;;;46.88;27.05;;;9.50;99.90;;;;;;4989566;28;20537;-82
2021/11/20 12:31:55;;;;;;;54.78;30.33;;;9.50;99.90;;;;;;4972730;28;20057;-81
2021/11/20 12:34:45;;;;;;;48.53;28.15;;;9.50;99.90;;;;;;4972133;28;20073;-81
2021/11/20 12:37:40;;;;;;;58.50;29.73;;;9.50;99.90;;;;;;4971070;28;20630;-84
2021/11/20 12:40:16;;;;;;;54.53;30.35;;;9.50;99.90;;;;;;4986763;28;20504;-81
2021/11/20 12:43:06;;;;;;;52.35;29.20;;;9.50;99.90;;;;;;4979403;28;20125;-82
2021/11/20 12:46:04;;;;;;;52.33;29.80;;;9.50;99.90;;;;;;4967389;28;20054;-82
2021/11/20 12:48:42;;;;;;;53.50;31.55;;;9.50;99.90;;;;;;4976528;28;20136;-81
2021/11/20 12:51:26;;;;;;;57.10;30.50;;;9.60;99.90;;;;;;4972730;28;20069;-82
2021/11/20 12:53:58;;;;;;;52.10;28.50;;;9.50;99.90;;;;;;4991450;28;20341;-82
2021/11/20 12:56:39;;;;;;;54.72;27.92;;;9.50;99.90;;;;;;4973739;28;20060;-81
2021/11/20 12:59:19;;;;;;;53.67;30.77;;;9.40;99.90;;;;;;4989855;28;20393;-80
2021/11/20 13:01:55;;;;;;;50.85;30.42;;;9.50;99.90;;;;;;5004752;28;20056;-81
2021/11/20 13:04:43;;;;;;;60.00;31.98;;;9.50;99.90;;;;;;4997816;28;20054;-81
2021/11/20 13:07:23;;;;;;;51.03;30.80;;;9.50;99.90;;;;;;4989030;28;20053;-80
2021/11/20 13:09:57;;;;;;;56.65;30.45;;;9.40;99.90;;;;;;4991057;28;20053;-80
2021/11/20 13:12:45;;;;;;;54.65;30.92;;;9.40;99.90;;;;;;4990375;28;20393;-81
2021/11/20 13:15:21;;;;;;;58.80;31.95;;;9.40;99.90;;;;;;4987733;28;20428;-80
2021/11/20 13:18:10;;;;;;;51.83;29.30;;;9.40;99.90;;;;;;5007400;28;20062;-80
2021/11/20 13:21:00;;;;;;;56.05;30.23;;;9.40;99.90;;;;;;4974125;28;20049;-81